Search for airport 
image banner adimage banner adimage banner ad
image banner ad

EKFA - Frodba

Located in Frodba, Faroe Islands

ICAO - EKFA, IATA -

Data provided by Airmate  

General information

Coordinates: N61°32'37" W6°46'28"
Elevation is 77 feet MSL.
Magnetic variation is -8.0° East
View others Airports in (unassigned)

Operational data

Special qualification required
Current time UTC:
Current local time:
Weather at : EKVG - Vagar ( 64 km )
METAR: EKVG 191150Z AUTO 21009KT 0550 R12/0650N R30/1200U -DZ FG VV003 10/10 Q0992
TAF: TAF EKVG 191112Z 1912/1921 19012KT 5000 -RADZ BR OVC003 TEMPO 1912/1921 0500 DZRA FG OVC001
View NOTAMs / SUP AIP / TFR affecting this airport [VIEW]
Communications frequencies: [VIEW]

Runways:

Airport contact information

Address: Frodba Faroe Islands

Satellite view of EKFA